createdAt,value
2022-10-02T00:01:20.242Z,2.40
2022-10-02T00:03:51.023Z,1.80
2022-10-02T00:06:23.077Z,3.23
2022-10-02T00:08:58.389Z,2.13
2022-10-02T00:11:31.304Z,2.40
2022-10-02T00:14:03.624Z,1.97
2022-10-02T00:16:35.617Z,2.30
2022-10-02T00:19:05.548Z,2.00
2022-10-02T00:21:47.096Z,2.17
2022-10-02T00:24:19.205Z,2.10
2022-10-02T00:26:53.568Z,1.87
2022-10-02T00:29:34.924Z,2.10
2022-10-02T00:32:14.213Z,2.17
2022-10-02T00:34:58.408Z,1.67
2022-10-02T00:37:37.800Z,2.37
2022-10-02T00:40:30.638Z,2.20
2022-10-02T00:43:06.944Z,2.30
2022-10-02T00:45:48.022Z,2.30
2022-10-02T00:48:31.717Z,2.50
2022-10-02T00:51:09.768Z,2.67
2022-10-02T00:53:50.556Z,3.07
2022-10-02T00:56:26.900Z,2.30
2022-10-02T00:59:30.465Z,2.10
2022-10-02T01:02:04.499Z,3.50
2022-10-02T01:04:35.246Z,3.00
2022-10-02T01:07:07.449Z,1.73
2022-10-02T01:09:35.617Z,2.03
2022-10-02T01:12:05.255Z,2.77
2022-10-02T01:14:34.657Z,2.20
2022-10-02T01:17:03.570Z,2.60
2022-10-02T01:19:38.244Z,1.97
2022-10-02T01:22:14.548Z,2.83
2022-10-02T01:24:51.614Z,2.23
2022-10-02T01:27:20.383Z,2.70
2022-10-02T01:29:53.139Z,2.77
2022-10-02T01:32:21.469Z,2.07
2022-10-02T01:34:51.777Z,3.10
2022-10-02T01:37:22.267Z,2.27
2022-10-02T01:39:52.365Z,2.20
2022-10-02T01:42:22.434Z,2.73
2022-10-02T01:44:50.674Z,2.83
2022-10-02T01:47:27.483Z,1.80
2022-10-02T01:50:08.245Z,2.10
2022-10-02T01:52:48.088Z,2.53
2022-10-02T01:55:28.184Z,2.67
2022-10-02T01:58:11.646Z,1.73
2022-10-02T02:01:01.685Z,1.87
2022-10-02T02:03:46.354Z,2.17
2022-10-02T02:06:22.621Z,3.43
2022-10-02T02:09:02.014Z,2.00
2022-10-02T02:11:32.869Z,1.87
2022-10-02T02:14:06.401Z,2.10
2022-10-02T02:16:39.746Z,2.13
2022-10-02T02:19:14.782Z,1.87
2022-10-02T02:21:47.292Z,2.83
2022-10-02T02:24:21.701Z,2.10
2022-10-02T02:26:54.492Z,2.57
2022-10-02T02:29:25.826Z,2.00
2022-10-02T02:31:58.054Z,2.40
2022-10-02T02:34:31.583Z,1.80
2022-10-02T02:37:06.796Z,2.50
2022-10-02T02:39:42.581Z,2.00
2022-10-02T02:42:17.907Z,3.10
2022-10-02T02:44:51.001Z,1.73
2022-10-02T02:47:23.682Z,1.80
2022-10-02T02:49:57.045Z,2.50
2022-10-02T02:52:28.338Z,4.20
2022-10-02T02:55:03.464Z,2.30
2022-10-02T02:57:38.439Z,2.27
2022-10-02T03:00:08.022Z,2.07
2022-10-02T03:02:36.315Z,2.20
2022-10-02T03:05:11.581Z,2.10
2022-10-02T03:07:39.774Z,3.30
2022-10-02T03:10:16.868Z,2.13
2022-10-02T03:12:58.079Z,1.70
2022-10-02T03:15:31.121Z,2.50
2022-10-02T03:18:21.186Z,1.50
2022-10-02T03:20:57.477Z,1.83
2022-10-02T03:23:34.266Z,2.07
2022-10-02T03:26:08.687Z,2.30
2022-10-02T03:28:55.623Z,2.37
2022-10-02T03:31:28.360Z,1.57
2022-10-02T03:34:00.103Z,2.10
2022-10-02T03:36:28.701Z,3.00
2022-10-02T03:39:23.587Z,2.13
2022-10-02T03:41:49.246Z,2.60
2022-10-02T03:44:18.725Z,2.93
2022-10-02T03:46:46.996Z,1.73
2022-10-02T03:49:15.196Z,1.83
2022-10-02T03:51:43.378Z,1.87
2022-10-02T03:54:16.926Z,2.13
2022-10-02T03:56:53.101Z,2.10
2022-10-02T03:59:37.015Z,3.03
2022-10-02T04:02:12.276Z,2.67
2022-10-02T04:04:47.310Z,2.20
2022-10-02T04:07:23.073Z,2.27
2022-10-02T04:10:01.773Z,2.63
2022-10-02T04:12:34.193Z,2.33
2022-10-02T04:15:10.758Z,2.20
2022-10-02T04:17:44.271Z,2.43
2022-10-02T04:20:19.031Z,2.37
2022-10-02T04:22:52.949Z,2.67
2022-10-02T04:25:23.950Z,3.10
2022-10-02T04:27:57.279Z,1.90
2022-10-02T04:30:26.925Z,2.40
2022-10-02T04:32:55.180Z,2.67
2022-10-02T04:35:29.941Z,2.50
2022-10-02T04:38:22.672Z,3.00
2022-10-02T04:41:05.025Z,2.00
2022-10-02T04:43:47.829Z,2.73
2022-10-02T04:46:34.193Z,2.77
2022-10-02T04:49:18.721Z,2.90
2022-10-02T04:52:04.885Z,3.40
2022-10-02T04:54:53.089Z,3.93
2022-10-02T04:57:36.203Z,2.47
2022-10-02T05:00:10.084Z,3.43
2022-10-02T05:02:54.108Z,2.23
2022-10-02T05:05:32.765Z,2.73
2022-10-02T05:08:22.981Z,2.60
2022-10-02T05:11:03.345Z,2.27
2022-10-02T05:13:53.634Z,2.53
2022-10-02T05:16:33.772Z,2.60
2022-10-02T05:19:20.268Z,2.77
2022-10-02T05:22:01.450Z,2.50
2022-10-02T05:24:46.085Z,3.17
2022-10-02T05:27:38.808Z,2.17
2022-10-02T05:30:10.845Z,2.20
2022-10-02T05:33:04.899Z,3.23
2022-10-02T05:35:52.206Z,2.13
2022-10-02T05:38:36.345Z,2.33
2022-10-02T05:41:09.053Z,2.40
2022-10-02T05:43:44.426Z,3.50
2022-10-02T05:46:17.875Z,2.40
2022-10-02T05:48:48.310Z,3.10
2022-10-02T05:51:24.477Z,2.07
2022-10-02T05:53:59.745Z,2.37
2022-10-02T05:56:34.176Z,2.57
2022-10-02T05:59:09.347Z,3.07
2022-10-02T06:01:42.221Z,2.20
2022-10-02T06:04:16.885Z,2.07
2022-10-02T06:06:51.489Z,2.67
2022-10-02T06:09:24.046Z,1.80
2022-10-02T06:12:00.238Z,2.37
2022-10-02T06:14:34.460Z,2.00
2022-10-02T06:17:06.464Z,1.83
2022-10-02T06:19:39.890Z,2.30
2022-10-02T06:22:14.834Z,1.67
2022-10-02T06:24:49.263Z,1.57
2022-10-02T06:27:28.920Z,1.53
2022-10-02T06:30:01.323Z,1.60
2022-10-02T06:32:35.997Z,1.63
2022-10-02T06:35:11.975Z,2.50
2022-10-02T06:37:55.101Z,2.90
2022-10-02T06:40:51.278Z,2.97
2022-10-02T06:43:41.674Z,2.37
2022-10-02T06:46:22.884Z,3.13
2022-10-02T06:48:58.617Z,1.83
2022-10-02T06:51:37.548Z,1.50
2022-10-02T06:54:23.421Z,1.80
2022-10-02T06:57:08.029Z,1.67
2022-10-02T06:59:50.393Z,1.67
2022-10-02T07:02:56.556Z,1.77
2022-10-02T07:05:48.727Z,1.50
2022-10-02T07:08:30.334Z,5.90
2022-10-02T07:11:06.034Z,2.33
2022-10-02T07:13:45.673Z,1.30
2022-10-02T07:16:38.966Z,1.33
2022-10-02T07:19:22.656Z,1.47
2022-10-02T07:22:07.836Z,2.30
2022-10-02T07:25:05.305Z,12.83
2022-10-02T07:27:43.294Z,1.80
2022-10-02T07:30:12.952Z,1.80
2022-10-02T07:32:49.059Z,1.40
2022-10-02T07:35:28.261Z,1.77
2022-10-02T07:38:12.507Z,1.53
2022-10-02T07:40:52.201Z,2.70
2022-10-02T07:43:40.402Z,1.93
2022-10-02T07:46:18.000Z,1.63
2022-10-02T07:49:00.144Z,2.20
2022-10-02T07:51:51.000Z,2.90
2022-10-02T07:54:56.976Z,2.70
2022-10-02T07:57:31.160Z,2.73
2022-10-02T08:00:06.741Z,4.17
2022-10-02T08:02:44.390Z,3.70
2022-10-02T08:05:19.618Z,2.47
2022-10-02T08:07:50.919Z,2.23
2022-10-02T08:10:25.734Z,3.00
2022-10-02T08:13:01.661Z,2.63
2022-10-02T08:15:36.480Z,2.90
2022-10-02T08:18:33.079Z,3.13
2022-10-02T08:21:03.221Z,3.37
2022-10-02T08:23:37.656Z,3.30
2022-10-02T08:26:10.594Z,3.50
2022-10-02T08:28:43.819Z,4.13
2022-10-02T08:31:14.753Z,3.60
2022-10-02T08:33:43.275Z,2.90
2022-10-02T08:36:55.671Z,2.60
2022-10-02T08:39:53.035Z,2.77
2022-10-02T08:42:54.940Z,2.87
2022-10-02T08:45:41.481Z,3.00
2022-10-02T08:48:54.878Z,2.53
2022-10-02T08:51:51.410Z,2.60
2022-10-02T08:55:05.802Z,2.90
2022-10-02T08:58:03.873Z,3.80
2022-10-02T09:00:44.231Z,4.10
2022-10-02T09:03:45.872Z,3.37
2022-10-02T09:06:52.172Z,3.20
2022-10-02T09:09:47.770Z,4.73
2022-10-02T09:12:49.216Z,2.67
2022-10-02T09:15:19.539Z,3.10
2022-10-02T09:17:53.928Z,3.13
2022-10-02T09:20:57.558Z,3.10
2022-10-02T09:24:06.837Z,2.63
2022-10-02T09:26:58.529Z,3.57
2022-10-02T09:30:06.196Z,3.37
2022-10-02T09:33:15.775Z,2.93
2022-10-02T09:36:12.024Z,2.73
2022-10-02T09:38:58.756Z,3.20
2022-10-02T09:42:07.168Z,3.33
2022-10-02T09:45:01.605Z,3.00
2022-10-02T09:48:18.752Z,2.93
2022-10-02T09:51:17.665Z,3.87
2022-10-02T09:54:21.380Z,3.57
2022-10-02T09:57:20.759Z,3.43
2022-10-02T10:00:11.284Z,2.60
2022-10-02T10:03:22.663Z,2.90
2022-10-02T10:06:04.547Z,3.70
2022-10-02T10:09:02.546Z,3.50
2022-10-02T10:12:10.212Z,4.90
2022-10-02T10:15:23.621Z,3.00
2022-10-02T10:18:31.890Z,3.27
2022-10-02T10:21:34.595Z,3.40
2022-10-02T10:24:19.992Z,3.20
2022-10-02T10:27:15.509Z,3.77
2022-10-02T10:30:19.959Z,2.53
2022-10-02T10:33:20.053Z,2.83
2022-10-02T10:36:44.504Z,2.40
2022-10-02T10:39:51.922Z,3.00
2022-10-02T10:43:06.404Z,3.67
2022-10-02T10:45:48.398Z,3.10
2022-10-02T10:48:31.614Z,2.90
2022-10-02T10:51:16.912Z,3.70
2022-10-02T10:54:17.354Z,2.90
2022-10-02T10:56:51.238Z,3.17
2022-10-02T10:59:54.801Z,3.87
2022-10-02T11:03:13.901Z,4.50
2022-10-02T11:06:23.427Z,1.40
2022-10-02T11:09:30.926Z,1.57
2022-10-02T11:12:21.663Z,0.80
2022-10-02T11:15:10.084Z,0.90
2022-10-02T11:18:07.711Z,0.80
2022-10-02T11:20:59.417Z,0.70
2022-10-02T11:23:48.269Z,0.70
2022-10-02T11:26:28.516Z,0.90
2022-10-02T11:29:17.711Z,1.10
2022-10-02T11:32:06.677Z,3.70
2022-10-02T11:35:01.709Z,1.20
2022-10-02T11:37:55.280Z,2.03
2022-10-02T11:40:39.657Z,2.60
2022-10-02T11:43:44.081Z,2.93
2022-10-02T11:46:33.547Z,3.83
2022-10-02T11:49:27.028Z,4.33
2022-10-02T11:52:21.150Z,2.33
2022-10-02T11:55:00.390Z,4.37
2022-10-02T11:57:42.136Z,3.40
2022-10-02T12:00:35.341Z,3.70
2022-10-02T12:03:10.690Z,4.00
2022-10-02T12:05:53.420Z,3.10
2022-10-02T12:08:34.289Z,2.80
2022-10-02T12:11:12.848Z,4.03
2022-10-02T12:14:08.162Z,3.47
2022-10-02T12:16:55.381Z,3.73
2022-10-02T12:19:40.640Z,2.40
2022-10-02T12:22:39.932Z,2.40
2022-10-02T12:25:38.260Z,3.50
2022-10-02T12:28:13.916Z,2.90
2022-10-02T12:30:52.201Z,3.53
2022-10-02T12:33:32.889Z,2.70
2022-10-02T12:36:16.968Z,2.43
2022-10-02T12:39:00.558Z,3.00
2022-10-02T12:41:55.255Z,3.33
2022-10-02T12:44:40.877Z,3.30
2022-10-02T12:47:35.433Z,3.63
2022-10-02T12:50:21.782Z,3.27
2022-10-02T12:53:48.096Z,3.17
2022-10-02T12:56:36.508Z,2.73
2022-10-02T12:59:14.945Z,2.73
2022-10-02T13:02:10.598Z,3.53
2022-10-02T13:05:12.617Z,2.87
2022-10-02T13:08:16.020Z,2.70
2022-10-02T13:10:48.231Z,2.57
2022-10-02T13:13:37.990Z,2.50
2022-10-02T13:16:12.569Z,2.83
2022-10-02T13:19:02.096Z,2.60
2022-10-02T13:21:39.937Z,2.13
2022-10-02T13:24:27.763Z,2.30
2022-10-02T13:27:07.934Z,2.07
2022-10-02T13:29:48.023Z,3.03
2022-10-02T13:32:36.665Z,3.37
2022-10-02T13:35:30.361Z,3.47
2022-10-02T13:38:12.429Z,2.23
2022-10-02T13:40:51.166Z,1.90
2022-10-02T13:43:38.595Z,1.60
2022-10-02T13:46:21.010Z,1.63
2022-10-02T13:49:04.492Z,2.20
2022-10-02T13:51:38.177Z,1.07
2022-10-02T13:54:26.683Z,0.70
2022-10-02T13:57:03.313Z,1.40
2022-10-02T13:59:54.278Z,1.90
2022-10-02T14:02:39.617Z,0.80
2022-10-02T14:05:20.525Z,1.10
2022-10-02T14:08:05.424Z,1.10
2022-10-02T14:10:46.255Z,1.10
2022-10-02T14:13:29.536Z,0.90
2022-10-02T14:16:12.985Z,0.80
2022-10-02T14:19:20.130Z,1.20
2022-10-02T14:22:04.484Z,0.80
2022-10-02T14:25:04.338Z,1.03
2022-10-02T14:27:59.083Z,2.00
2022-10-02T14:30:36.206Z,2.40
2022-10-02T14:33:11.370Z,12.27
2022-10-02T14:35:52.811Z,4.93
2022-10-02T14:38:35.272Z,0.80
2022-10-02T14:41:18.136Z,0.90
2022-10-02T14:44:13.940Z,2.33
2022-10-02T14:47:01.017Z,0.70
2022-10-02T14:49:50.218Z,0.80
2022-10-02T14:52:30.832Z,0.83
2022-10-02T14:55:15.978Z,1.10
2022-10-02T14:57:58.208Z,0.80
2022-10-02T15:00:34.989Z,1.10
2022-10-02T15:03:25.189Z,1.73
2022-10-02T15:06:03.154Z,1.40
2022-10-02T15:08:39.058Z,1.20
2022-10-02T15:11:21.681Z,1.50
2022-10-02T15:13:56.644Z,1.23
2022-10-02T15:16:51.119Z,17.90
2022-10-02T15:19:25.413Z,2.93
2022-10-02T15:21:59.171Z,17.93
2022-10-02T15:24:33.325Z,10.23
2022-10-02T15:27:16.312Z,1.90
2022-10-02T15:30:03.557Z,1.03
2022-10-02T15:32:45.193Z,1.53
2022-10-02T15:35:29.804Z,1.10
2022-10-02T15:38:16.708Z,2.10
2022-10-02T15:41:16.679Z,1.63
2022-10-02T15:43:53.988Z,1.20
2022-10-02T15:46:27.932Z,1.20
2022-10-02T15:49:12.422Z,1.57
2022-10-02T15:51:57.980Z,1.80
2022-10-02T15:54:37.694Z,1.10
2022-10-02T15:57:30.902Z,1.00
2022-10-02T16:00:15.916Z,1.10
2022-10-02T16:03:00.868Z,1.03
2022-10-02T16:05:43.353Z,1.00
2022-10-02T16:08:29.076Z,1.57
2022-10-02T16:11:16.371Z,2.03
2022-10-02T16:13:52.664Z,1.53
2022-10-02T16:16:46.862Z,1.37
2022-10-02T16:19:24.672Z,1.30
2022-10-02T16:22:17.630Z,1.50
2022-10-02T16:25:00.675Z,1.70
2022-10-02T16:27:32.691Z,1.67
2022-10-02T16:30:13.164Z,1.27
2022-10-02T16:33:00.387Z,1.50
2022-10-02T16:36:05.594Z,2.40
2022-10-02T16:38:47.628Z,3.53
2022-10-02T16:41:36.856Z,2.40
2022-10-02T16:44:18.704Z,2.17
2022-10-02T16:46:53.352Z,1.87
2022-10-02T16:49:30.430Z,2.20
2022-10-02T16:52:05.969Z,1.50
2022-10-02T16:54:47.093Z,3.10
2022-10-02T16:57:23.596Z,3.03
2022-10-02T17:00:00.905Z,1.27
2022-10-02T17:02:42.707Z,1.30
2022-10-02T17:05:25.378Z,1.07
2022-10-02T17:07:59.808Z,1.37
2022-10-02T17:10:41.293Z,1.50
2022-10-02T17:13:28.729Z,1.23
2022-10-02T17:16:07.023Z,1.30
2022-10-02T17:18:43.349Z,1.10
2022-10-02T17:21:16.933Z,1.37
2022-10-02T17:23:56.245Z,2.33
2022-10-02T17:26:37.628Z,1.47
2022-10-02T17:29:16.283Z,2.07
2022-10-02T17:31:51.707Z,1.40
2022-10-02T17:34:24.320Z,1.50
2022-10-02T17:37:03.889Z,2.97
2022-10-02T17:39:53.528Z,11.97
2022-10-02T17:42:39.164Z,5.03
2022-10-02T17:45:19.217Z,5.67
2022-10-02T17:47:57.936Z,5.07
2022-10-02T17:50:45.329Z,14.87
2022-10-02T17:53:50.255Z,18.50
2022-10-02T17:56:32.823Z,82.47
2022-10-02T17:59:19.942Z,99.90
2022-10-02T18:01:59.129Z,97.13
2022-10-02T18:04:37.951Z,182.87
2022-10-02T18:07:28.399Z,259.23
2022-10-02T18:10:04.474Z,38.50
2022-10-02T18:13:05.603Z,97.27
2022-10-02T18:15:46.195Z,24.47
2022-10-02T18:18:24.381Z,17.53
2022-10-02T18:21:03.593Z,31.37
2022-10-02T18:23:57.627Z,25.00
2022-10-02T18:26:34.780Z,15.10
2022-10-02T18:29:29.199Z,29.00
2022-10-02T18:32:32.179Z,12.13
2022-10-02T18:35:15.280Z,7.17
2022-10-02T18:38:13.482Z,29.70
2022-10-02T18:40:55.696Z,14.23
2022-10-02T18:43:54.305Z,59.60
2022-10-02T18:46:38.177Z,41.50
2022-10-02T18:49:20.392Z,52.90
2022-10-02T18:52:15.864Z,23.10
2022-10-02T18:54:56.149Z,7.70
2022-10-02T18:57:45.839Z,4.40
2022-10-02T19:00:19.726Z,3.00
2022-10-02T19:03:09.772Z,4.03
2022-10-02T19:05:43.622Z,3.30
2022-10-02T19:08:21.565Z,3.13
2022-10-02T19:10:49.728Z,3.50
2022-10-02T19:13:28.712Z,3.00
2022-10-02T19:16:01.245Z,3.80
2022-10-02T19:18:31.060Z,4.27
2022-10-02T19:21:06.548Z,3.03
2022-10-02T19:23:39.774Z,4.73
2022-10-02T19:26:17.688Z,6.77
2022-10-02T19:28:50.956Z,6.60
2022-10-02T19:31:22.611Z,6.60
2022-10-02T19:33:54.651Z,13.03
2022-10-02T19:36:26.317Z,20.17
2022-10-02T19:38:58.097Z,18.40
2022-10-02T19:41:26.697Z,95.20
2022-10-02T19:44:00.871Z,186.83
2022-10-02T19:46:33.681Z,166.27
2022-10-02T19:49:03.107Z,221.83
2022-10-02T19:51:43.689Z,112.93
2022-10-02T19:54:16.837Z,109.10
2022-10-02T19:56:46.317Z,56.37
2022-10-02T19:59:19.876Z,42.07
2022-10-02T20:01:52.526Z,29.57
2022-10-02T20:04:23.647Z,29.60
2022-10-02T20:06:55.983Z,29.23
2022-10-02T20:09:30.730Z,36.47
2022-10-02T20:12:05.491Z,52.30
2022-10-02T20:14:40.586Z,134.77
2022-10-02T20:17:10.118Z,152.10
2022-10-02T20:19:43.269Z,35.63
2022-10-02T20:22:19.439Z,116.83
2022-10-02T20:24:53.356Z,34.20
2022-10-02T20:27:26.350Z,15.60
2022-10-02T20:30:03.369Z,19.50
2022-10-02T20:32:36.200Z,21.73
2022-10-02T20:35:12.379Z,63.83
2022-10-02T20:37:41.382Z,32.47
2022-10-02T20:40:15.807Z,15.97
2022-10-02T20:42:50.523Z,13.80
2022-10-02T20:45:23.949Z,6.40
2022-10-02T20:48:25.101Z,7.40
2022-10-02T20:51:06.390Z,3.50
2022-10-02T20:54:05.650Z,3.20
2022-10-02T20:56:49.272Z,4.80
2022-10-02T21:00:03.691Z,2.83
2022-10-02T21:02:54.254Z,2.43
2022-10-02T21:05:42.077Z,1.90
2022-10-02T21:08:52.499Z,2.37
2022-10-02T21:11:54.440Z,3.77
2022-10-02T21:14:42.395Z,6.83
2022-10-02T21:17:58.085Z,4.73
2022-10-02T21:20:56.421Z,2.70
2022-10-02T21:23:44.618Z,3.70
2022-10-02T21:26:39.355Z,2.63
2022-10-02T21:29:31.159Z,3.50
2022-10-02T21:32:39.970Z,6.33
2022-10-02T21:35:34.092Z,5.83
2022-10-02T21:38:27.919Z,9.50
2022-10-02T21:41:29.783Z,7.77
2022-10-02T21:44:29.307Z,3.30
2022-10-02T21:47:37.335Z,2.17
2022-10-02T21:50:37.640Z,4.10
2022-10-02T21:53:27.428Z,2.10
2022-10-02T21:56:55.687Z,2.73
2022-10-02T21:59:57.855Z,2.53
2022-10-02T22:02:45.764Z,1.80
2022-10-02T22:05:43.280Z,2.00
2022-10-02T22:08:22.386Z,2.63
2022-10-02T22:10:57.832Z,3.00
2022-10-02T22:13:32.776Z,3.40
2022-10-02T22:16:15.067Z,1.90
2022-10-02T22:18:49.875Z,2.40
2022-10-02T22:21:34.119Z,2.60
2022-10-02T22:24:29.847Z,3.00
2022-10-02T22:27:16.812Z,1.60
2022-10-02T22:29:48.193Z,2.20
2022-10-02T22:32:53.080Z,2.50
2022-10-02T22:35:31.135Z,2.37
2022-10-02T22:38:13.503Z,1.90
2022-10-02T22:40:48.204Z,2.33
2022-10-02T22:43:25.641Z,2.07
2022-10-02T22:45:59.255Z,3.07
2022-10-02T22:48:37.221Z,3.27
2022-10-02T22:51:16.146Z,1.80
2022-10-02T22:53:51.948Z,3.23
2022-10-02T22:56:30.472Z,1.80
2022-10-02T22:59:10.541Z,2.50
2022-10-02T23:01:45.814Z,3.50
2022-10-02T23:04:28.819Z,2.67
2022-10-02T23:07:05.072Z,2.03
2022-10-02T23:09:43.177Z,3.33
2022-10-02T23:12:18.054Z,2.90
2022-10-02T23:14:59.936Z,2.90
2022-10-02T23:17:38.015Z,4.07
2022-10-02T23:20:14.751Z,2.10
2022-10-02T23:22:51.305Z,3.07
2022-10-02T23:25:30.048Z,2.67
2022-10-02T23:28:05.642Z,2.23
2022-10-02T23:30:38.901Z,2.27
2022-10-02T23:33:20.583Z,2.70
2022-10-02T23:35:55.136Z,3.77
2022-10-02T23:38:29.619Z,2.30
2022-10-02T23:41:24.626Z,2.07
2022-10-02T23:44:04.098Z,2.10
2022-10-02T23:46:38.609Z,2.97
2022-10-02T23:49:10.228Z,1.67
2022-10-02T23:51:48.912Z,2.63
2022-10-02T23:54:37.006Z,3.03
2022-10-02T23:57:23.941Z,3.43
